Time,TemperatureF,DewpointF,PressureIn,WindDirection,WindDirectionDegrees,WindSpeedMPH,WindSpeedGustMPH,Humidity,HourlyPrecipIn,Conditions,Clouds,dailyrainin,SoftwareType,DateUTC
2013-04-03 00:12:00,37.0,29.0,-100.00,SE,128,3.0,5.0,73,0.00,,,0.00,,2013-04-03 07:12:00,
2013-04-03 00:23:00,37.0,29.0,-100.00,SE,128,3.0,5.0,73,0.00,,,0.00,,2013-04-03 07:23:00,
2013-04-03 01:12:00,36.0,32.0,-100.00,ESE,114,3.0,4.0,86,0.00,,,0.00,,2013-04-03 08:12:00,
2013-04-03 01:22:00,36.0,32.0,-100.00,ESE,114,3.0,4.0,86,0.00,,,0.00,,2013-04-03 08:22:00,
2013-04-03 01:32:00,36.0,32.0,-100.00,ESE,114,3.0,4.0,86,0.00,,,0.00,,2013-04-03 08:32:00,
2013-04-03 01:42:00,36.0,32.0,-100.00,ESE,114,3.0,4.0,86,0.00,,,0.00,,2013-04-03 08:42:00,
2013-04-03 01:51:00,36.0,32.0,-100.00,ESE,114,3.0,4.0,86,0.00,,,0.00,,2013-04-03 08:51:00,
2013-04-03 02:22:00,35.0,31.0,-100.00,SE,132,2.0,4.0,85,0.00,,,-99.99,,2013-04-03 09:22:00,
2013-04-03 02:33:00,35.0,31.0,-100.00,SE,132,2.0,4.0,85,0.00,,,-99.99,,2013-04-03 09:33:00,
2013-04-03 02:43:00,35.0,31.0,-100.00,SE,132,2.0,4.0,85,0.00,,,-99.99,,2013-04-03 09:43:00,
2013-04-03 02:52:00,35.0,31.0,-100.00,SE,132,2.0,4.0,85,0.00,,,-99.99,,2013-04-03 09:52:00,
2013-04-03 03:12:00,35.0,31.0,-100.00,ESE,116,3.0,4.0,86,0.00,,,0.00,,2013-04-03 10:12:00,
2013-04-03 03:22:00,35.0,31.0,-100.00,ESE,116,3.0,4.0,86,0.00,,,0.00,,2013-04-03 10:22:00,
2013-04-03 03:33:00,35.0,31.0,-100.00,ESE,116,3.0,4.0,86,0.00,,,0.00,,2013-04-03 10:33:00,
2013-04-03 03:42:00,35.0,31.0,-100.00,ESE,116,3.0,4.0,86,0.00,,,0.00,,2013-04-03 10:42:00,
2013-04-03 03:52:00,35.0,31.0,-100.00,ESE,116,3.0,4.0,86,0.00,,,0.00,,2013-04-03 10:52:00,
2013-04-03 04:12:00,36.0,31.0,-100.00,ESE,113,3.0,4.0,83,0.00,,,0.00,,2013-04-03 11:12:00,
2013-04-03 04:22:00,36.0,31.0,-100.00,ESE,113,3.0,4.0,83,0.00,,,0.00,,2013-04-03 11:22:00,
2013-04-03 04:32:00,36.0,31.0,-100.00,ESE,113,3.0,4.0,83,0.00,,,0.00,,2013-04-03 11:32:00,
2013-04-03 04:42:00,36.0,31.0,-100.00,ESE,113,3.0,4.0,83,0.00,,,0.00,,2013-04-03 11:42:00,
2013-04-03 04:52:00,36.0,31.0,-100.00,ESE,113,3.0,4.0,83,0.00,,,0.00,,2013-04-03 11:52:00,
2013-04-03 05:12:00,36.0,30.0,-100.00,ESE,114,3.0,4.0,79,0.00,,,0.00,,2013-04-03 12:12:00,
2013-04-03 05:22:00,36.0,30.0,-100.00,ESE,114,3.0,4.0,79,0.00,,,0.00,,2013-04-03 12:22:00,
2013-04-03 06:22:00,37.0,31.0,-100.00,ESE,110,2.0,4.0,78,-99.99,,,0.00,,2013-04-03 13:22:00,
2013-04-03 06:32:00,37.0,31.0,-100.00,ESE,110,2.0,4.0,78,-99.99,,,0.00,,2013-04-03 13:32:00,
2013-04-03 07:12:00,42.0,31.0,-100.00,ESE,115,4.0,5.0,65,-99.99,,,0.00,,2013-04-03 14:12:00,
2013-04-03 07:22:00,42.0,31.0,-100.00,ESE,115,4.0,5.0,65,-99.99,,,0.00,,2013-04-03 14:22:00,
2013-04-03 07:32:00,42.0,31.0,-100.00,ESE,115,4.0,5.0,65,-99.99,,,0.00,,2013-04-03 14:32:00,
2013-04-03 07:42:00,42.0,31.0,-100.00,ESE,115,4.0,5.0,65,-99.99,,,0.00,,2013-04-03 14:42:00,
2013-04-03 07:51:00,42.0,31.0,-100.00,ESE,115,4.0,5.0,65,-99.99,,,0.00,,2013-04-03 14:51:00,
2013-04-03 07:53:00,50.0,32.0,-100.00,East,98,5.0,7.0,50,0.00,,,0.00,,2013-04-03 14:53:00,
2013-04-03 08:23:00,50.0,32.0,-100.00,East,98,5.0,7.0,50,0.00,,,0.00,,2013-04-03 15:23:00,
2013-04-03 08:33:00,50.0,32.0,-100.00,East,98,5.0,7.0,50,0.00,,,0.00,,2013-04-03 15:33:00,
2013-04-03 08:42:00,50.0,32.0,-100.00,East,98,5.0,7.0,50,0.00,,,0.00,,2013-04-03 15:42:00,
2013-04-03 09:23:00,57.0,27.0,-100.00,ESE,111,4.0,10.0,32,0.00,,,0.00,,2013-04-03 16:23:00,
2013-04-03 09:32:00,57.0,27.0,-100.00,ESE,111,4.0,10.0,32,0.00,,,0.00,,2013-04-03 16:32:00,
2013-04-03 09:43:00,57.0,27.0,-100.00,ESE,111,4.0,10.0,32,0.00,,,0.00,,2013-04-03 16:43:00,
2013-04-03 09:52:00,57.0,27.0,-100.00,ESE,111,4.0,10.0,32,0.00,,,0.00,,2013-04-03 16:52:00,
2013-04-03 10:22:00,61.0,28.0,-100.00,ESE,111,6.0,13.0,28,0.00,,,0.00,,2013-04-03 17:22:00,
2013-04-03 10:32:00,61.0,28.0,-100.00,ESE,111,6.0,13.0,28,0.00,,,0.00,,2013-04-03 17:32:00,
2013-04-03 10:45:00,61.0,28.0,-100.00,ESE,111,6.0,13.0,28,0.00,,,0.00,,2013-04-03 17:45:00,
2013-04-03 10:52:00,61.0,28.0,-100.00,ESE,111,6.0,13.0,28,0.00,,,0.00,,2013-04-03 17:52:00,
2013-04-03 11:12:00,63.0,28.0,-100.00,ESE,107,6.0,15.0,26,0.00,,,0.00,,2013-04-03 18:12:00,
2013-04-03 11:22:00,63.0,28.0,-100.00,ESE,107,6.0,15.0,26,0.00,,,0.00,,2013-04-03 18:22:00,
2013-04-03 11:33:00,63.0,28.0,-100.00,ESE,107,6.0,15.0,26,0.00,,,0.00,,2013-04-03 18:33:00,
2013-04-03 11:42:00,63.0,28.0,-100.00,ESE,107,6.0,15.0,26,0.00,,,0.00,,2013-04-03 18:42:00,
2013-04-03 11:52:00,63.0,28.0,-100.00,ESE,107,6.0,15.0,26,0.00,,,0.00,,2013-04-03 18:52:00,
2013-04-03 12:12:00,65.0,27.0,-100.00,SSE,150,5.0,15.0,24,0.00,,,0.00,,2013-04-03 19:12:00,
2013-04-03 12:22:00,65.0,27.0,-100.00,SSE,150,5.0,15.0,24,0.00,,,0.00,,2013-04-03 19:22:00,
2013-04-03 12:32:00,65.0,27.0,-100.00,SSE,150,5.0,15.0,24,0.00,,,0.00,,2013-04-03 19:32:00,
2013-04-03 12:42:00,65.0,27.0,-100.00,SSE,150,5.0,15.0,24,0.00,,,0.00,,2013-04-03 19:42:00,
2013-04-03 12:52:00,65.0,27.0,-100.00,SSE,150,5.0,15.0,24,0.00,,,0.00,,2013-04-03 19:52:00,
2013-04-03 13:12:00,66.0,26.0,-100.00,ESE,110,6.0,14.0,22,0.00,,,0.00,,2013-04-03 20:12:00,
2013-04-03 13:22:00,66.0,26.0,-100.00,ESE,110,6.0,14.0,22,0.00,,,0.00,,2013-04-03 20:22:00,
2013-04-03 13:32:00,66.0,26.0,-100.00,ESE,110,6.0,14.0,22,0.00,,,0.00,,2013-04-03 20:32:00,
2013-04-03 13:42:00,66.0,26.0,-100.00,ESE,110,6.0,14.0,22,0.00,,,0.00,,2013-04-03 20:42:00,
2013-04-03 13:52:00,66.0,26.0,-100.00,ESE,110,6.0,14.0,22,0.00,,,0.00,,2013-04-03 20:52:00,
2013-04-03 14:12:00,67.0,27.0,-100.00,SE,127,6.0,14.0,22,0.00,,,0.00,,2013-04-03 21:12:00,
2013-04-03 14:22:00,67.0,27.0,-100.00,SE,127,6.0,14.0,22,0.00,,,0.00,,2013-04-03 21:22:00,
2013-04-03 14:32:00,67.0,27.0,-100.00,SE,127,6.0,14.0,22,0.00,,,0.00,,2013-04-03 21:32:00,
2013-04-03 14:42:00,67.0,27.0,-100.00,SE,127,6.0,14.0,22,0.00,,,0.00,,2013-04-03 21:42:00,
2013-04-03 14:52:00,67.0,27.0,-100.00,SE,127,6.0,14.0,22,0.00,,,0.00,,2013-04-03 21:52:00,
2013-04-03 15:22:00,68.0,27.0,-100.00,ESE,120,6.0,12.0,21,0.00,,,0.00,,2013-04-03 22:22:00,
2013-04-03 15:32:00,68.0,27.0,-100.00,ESE,120,6.0,12.0,21,0.00,,,0.00,,2013-04-03 22:32:00,
2013-04-03 15:42:00,68.0,27.0,-100.00,ESE,120,6.0,12.0,21,0.00,,,0.00,,2013-04-03 22:42:00,
2013-04-03 15:52:00,68.0,27.0,-100.00,ESE,120,6.0,12.0,21,0.00,,,0.00,,2013-04-03 22:52:00,
2013-04-03 16:12:00,69.0,27.0,-100.00,West,271,4.0,16.0,21,0.00,,,0.00,,2013-04-03 23:12:00,
2013-04-03 16:22:00,69.0,27.0,-100.00,West,271,4.0,16.0,21,0.00,,,0.00,,2013-04-03 23:22:00,
2013-04-03 16:32:00,69.0,27.0,-100.00,West,271,4.0,16.0,21,0.00,,,0.00,,2013-04-03 23:32:00,
2013-04-03 16:42:00,69.0,27.0,-100.00,West,271,4.0,16.0,21,0.00,,,0.00,,2013-04-03 23:42:00,
2013-04-03 16:52:00,69.0,27.0,-100.00,West,271,4.0,16.0,21,0.00,,,0.00,,2013-04-03 23:52:00,
2013-04-03 17:22:00,66.0,29.0,-100.00,NW,304,5.0,11.0,25,0.00,,,0.00,,2013-04-04 00:22:00,
2013-04-03 17:32:00,66.0,29.0,-100.00,NW,304,5.0,11.0,25,0.00,,,0.00,,2013-04-04 00:32:00,
2013-04-03 17:43:00,66.0,29.0,-100.00,NW,304,5.0,11.0,25,0.00,,,0.00,,2013-04-04 00:43:00,
2013-04-03 17:52:00,66.0,29.0,-100.00,NW,304,5.0,11.0,25,0.00,,,0.00,,2013-04-04 00:52:00,
2013-04-03 18:11:00,64.0,39.0,-100.00,WNW,287,4.0,9.0,39,0.00,,,0.00,,2013-04-04 01:11:00,
2013-04-03 18:22:00,64.0,39.0,-100.00,WNW,287,4.0,9.0,39,0.00,,,0.00,,2013-04-04 01:22:00,
2013-04-03 18:32:00,64.0,39.0,-100.00,WNW,287,4.0,9.0,39,0.00,,,0.00,,2013-04-04 01:32:00,
2013-04-03 18:43:00,64.0,39.0,-100.00,WNW,287,4.0,9.0,39,0.00,,,0.00,,2013-04-04 01:43:00,
2013-04-03 18:52:00,64.0,39.0,-100.00,WNW,287,4.0,9.0,39,0.00,,,0.00,,2013-04-04 01:52:00,
2013-04-03 19:12:00,57.0,41.0,-100.00,SSE,166,2.0,5.0,54,0.00,,,0.00,,2013-04-04 02:12:00,
2013-04-03 19:22:00,57.0,41.0,-100.00,SSE,166,2.0,5.0,54,0.00,,,0.00,,2013-04-04 02:22:00,
2013-04-03 19:32:00,57.0,41.0,-100.00,SSE,166,2.0,5.0,54,0.00,,,0.00,,2013-04-04 02:32:00,
2013-04-03 19:42:00,57.0,41.0,-100.00,SSE,166,2.0,5.0,54,0.00,,,0.00,,2013-04-04 02:42:00,
2013-04-03 19:52:00,57.0,41.0,-100.00,SSE,166,2.0,5.0,54,0.00,,,0.00,,2013-04-04 02:52:00,
2013-04-03 19:53:00,50.0,39.0,-100.00,SSE,156,2.0,4.0,66,0.00,,,0.00,,2013-04-04 02:53:00,
2013-04-03 20:12:00,50.0,39.0,-100.00,SSE,156,2.0,4.0,66,0.00,,,0.00,,2013-04-04 03:12:00,
2013-04-03 20:22:00,50.0,39.0,-100.00,SSE,156,2.0,4.0,66,0.00,,,0.00,,2013-04-04 03:22:00,
2013-04-03 20:33:00,50.0,39.0,-100.00,SSE,156,2.0,4.0,66,0.00,,,0.00,,2013-04-04 03:33:00,
2013-04-03 20:43:00,50.0,39.0,-100.00,SSE,156,2.0,4.0,66,0.00,,,0.00,,2013-04-04 03:43:00,
2013-04-03 21:22:00,48.0,36.0,-100.00,SE,127,2.0,4.0,64,0.00,,,0.00,,2013-04-04 04:22:00,
2013-04-03 21:33:00,48.0,36.0,-100.00,SE,127,2.0,4.0,64,0.00,,,0.00,,2013-04-04 04:33:00,
2013-04-03 21:42:00,48.0,36.0,-100.00,SE,127,2.0,4.0,64,0.00,,,0.00,,2013-04-04 04:42:00,
2013-04-03 21:52:00,48.0,36.0,-100.00,SE,127,2.0,4.0,64,0.00,,,0.00,,2013-04-04 04:52:00,
2013-04-03 22:23:00,51.0,31.0,-100.00,SSE,164,2.0,7.0,47,0.00,,,0.00,,2013-04-04 05:23:00,
2013-04-03 22:32:00,51.0,31.0,-100.00,SSE,164,2.0,7.0,47,0.00,,,0.00,,2013-04-04 05:32:00,
2013-04-03 22:42:00,51.0,31.0,-100.00,SSE,164,2.0,7.0,47,0.00,,,0.00,,2013-04-04 05:42:00,
2013-04-03 22:52:00,51.0,31.0,-100.00,SSE,164,2.0,7.0,47,0.00,,,0.00,,2013-04-04 05:52:00,
2013-04-03 23:22:00,47.0,27.0,-100.00,SE,138,2.0,6.0,46,0.00,,,0.00,,2013-04-04 06:22:00,
2013-04-03 23:32:00,47.0,27.0,-100.00,SE,138,2.0,6.0,46,0.00,,,0.00,,2013-04-04 06:32:00,
2013-04-03 23:42:00,47.0,27.0,-100.00,SE,138,2.0,6.0,46,0.00,,,0.00,,2013-04-04 06:42:00,
2013-04-03 23:52:00,47.0,27.0,-100.00,SE,138,2.0,6.0,46,0.00,,,0.00,,2013-04-04 06:52:00,